sensor_id;sensor_type;location;lat;lon;timestamp;temperature;humidity
27226;DHT22;14732;51.074;3.788;2023-03-03T00:01:24;3.50;99.90
27226;DHT22;14732;51.074;3.788;2023-03-03T00:03:50;3.60;99.90
27226;DHT22;14732;51.074;3.788;2023-03-03T00:06:17;3.50;99.90
27226;DHT22;14732;51.074;3.788;2023-03-03T00:08:43;3.50;99.90
27226;DHT22;14732;51.074;3.788;2023-03-03T00:11:09;3.50;99.90
27226;DHT22;14732;51.074;3.788;2023-03-03T00:13:47;3.50;99.90
27226;DHT22;14732;51.074;3.788;2023-03-03T00:18:47;3.40;99.90
27226;DHT22;14732;51.074;3.788;2023-03-03T00:21:31;3.40;99.90
27226;DHT22;14732;51.074;3.788;2023-03-03T00:26:42;3.40;99.90
27226;DHT22;14732;51.074;3.788;2023-03-03T00:32:24;3.30;99.90
27226;DHT22;14732;51.074;3.788;2023-03-03T00:34:52;3.20;99.90
27226;DHT22;14732;51.074;3.788;2023-03-03T00:39:52;3.20;99.90
27226;DHT22;14732;51.074;3.788;2023-03-03T00:42:18;3.20;99.90
27226;DHT22;14732;51.074;3.788;2023-03-03T00:44:58;3.10;99.90
27226;DHT22;14732;51.074;3.788;2023-03-03T00:52:40;3.10;99.90
27226;DHT22;14732;51.074;3.788;2023-03-03T00:55:09;3.20;99.90
27226;DHT22;14732;51.074;3.788;2023-03-03T00:57:35;3.20;99.90
27226;DHT22;14732;51.074;3.788;2023-03-03T01:00:01;3.20;99.90
27226;DHT22;14732;51.074;3.788;2023-03-03T01:02:27;3.10;99.90
27226;DHT22;14732;51.074;3.788;2023-03-03T01:04:52;3.10;99.90
27226;DHT22;14732;51.074;3.788;2023-03-03T01:07:20;3.00;99.90
27226;DHT22;14732;51.074;3.788;2023-03-03T01:09:46;2.90;99.90
27226;DHT22;14732;51.074;3.788;2023-03-03T01:12:12;2.80;99.90
27226;DHT22;14732;51.074;3.788;2023-03-03T01:14:38;2.80;99.90
27226;DHT22;14732;51.074;3.788;2023-03-03T01:17:04;2.80;99.90
27226;DHT22;14732;51.074;3.788;2023-03-03T01:19:30;2.70;99.90
27226;DHT22;14732;51.074;3.788;2023-03-03T01:21:56;2.80;99.90
27226;DHT22;14732;51.074;3.788;2023-03-03T01:24:22;2.80;99.90
27226;DHT22;14732;51.074;3.788;2023-03-03T01:26:48;2.80;99.90
27226;DHT22;14732;51.074;3.788;2023-03-03T01:29:14;2.80;99.90
27226;DHT22;14732;51.074;3.788;2023-03-03T01:31:39;2.80;99.90
27226;DHT22;14732;51.074;3.788;2023-03-03T01:34:06;2.80;99.90
27226;DHT22;14732;51.074;3.788;2023-03-03T01:36:32;2.70;99.90
27226;DHT22;14732;51.074;3.788;2023-03-03T01:38:58;2.60;99.90
27226;DHT22;14732;51.074;3.788;2023-03-03T01:41:27;2.70;99.90
27226;DHT22;14732;51.074;3.788;2023-03-03T01:43:55;2.70;99.90
27226;DHT22;14732;51.074;3.788;2023-03-03T01:48:51;2.60;99.90
27226;DHT22;14732;51.074;3.788;2023-03-03T01:53:58;2.60;99.90
27226;DHT22;14732;51.074;3.788;2023-03-03T01:56:25;2.60;99.90
27226;DHT22;14732;51.074;3.788;2023-03-03T01:59:11;2.60;99.90
27226;DHT22;14732;51.074;3.788;2023-03-03T02:01:39;2.70;99.90
27226;DHT22;14732;51.074;3.788;2023-03-03T02:04:05;2.70;99.90
27226;DHT22;14732;51.074;3.788;2023-03-03T02:06:39;2.60;99.90
27226;DHT22;14732;51.074;3.788;2023-03-03T02:11:51;2.50;99.90
27226;DHT22;14732;51.074;3.788;2023-03-03T02:14:19;2.50;99.90
27226;DHT22;14732;51.074;3.788;2023-03-03T02:16:45;2.50;99.90
27226;DHT22;14732;51.074;3.788;2023-03-03T02:21:51;2.50;99.90
27226;DHT22;14732;51.074;3.788;2023-03-03T02:26:58;2.50;99.90
27226;DHT22;14732;51.074;3.788;2023-03-03T02:29:24;2.60;99.90
27226;DHT22;14732;51.074;3.788;2023-03-03T02:31:50;2.60;99.90
27226;DHT22;14732;51.074;3.788;2023-03-03T02:34:15;2.60;99.90
27226;DHT22;14732;51.074;3.788;2023-03-03T02:36:42;2.60;99.90
27226;DHT22;14732;51.074;3.788;2023-03-03T02:39:23;2.70;99.90
27226;DHT22;14732;51.074;3.788;2023-03-03T02:42:02;2.60;99.90
27226;DHT22;14732;51.074;3.788;2023-03-03T02:44:31;2.60;99.90
27226;DHT22;14732;51.074;3.788;2023-03-03T02:46:58;2.60;99.90
27226;DHT22;14732;51.074;3.788;2023-03-03T02:49:26;2.50;99.90
27226;DHT22;14732;51.074;3.788;2023-03-03T02:51:53;2.50;99.90
27226;DHT22;14732;51.074;3.788;2023-03-03T02:54:22;2.50;99.90
27226;DHT22;14732;51.074;3.788;2023-03-03T02:56:48;2.50;99.90
27226;DHT22;14732;51.074;3.788;2023-03-03T02:59:14;2.50;99.90
27226;DHT22;14732;51.074;3.788;2023-03-03T03:01:40;2.50;99.90
27226;DHT22;14732;51.074;3.788;2023-03-03T03:04:09;2.60;99.90
27226;DHT22;14732;51.074;3.788;2023-03-03T03:06:35;2.60;99.90
27226;DHT22;14732;51.074;3.788;2023-03-03T03:09:02;2.50;99.90
27226;DHT22;14732;51.074;3.788;2023-03-03T03:11:28;2.50;99.90
27226;DHT22;14732;51.074;3.788;2023-03-03T03:13:53;2.50;99.90
27226;DHT22;14732;51.074;3.788;2023-03-03T03:16:19;2.50;99.90
27226;DHT22;14732;51.074;3.788;2023-03-03T03:18:45;2.50;99.90
27226;DHT22;14732;51.074;3.788;2023-03-03T03:21:12;2.40;99.90
27226;DHT22;14732;51.074;3.788;2023-03-03T03:23:38;2.40;99.90
27226;DHT22;14732;51.074;3.788;2023-03-03T03:26:05;2.30;99.90
27226;DHT22;14732;51.074;3.788;2023-03-03T03:28:31;2.20;99.90
27226;DHT22;14732;51.074;3.788;2023-03-03T03:30:57;2.10;99.90
27226;DHT22;14732;51.074;3.788;2023-03-03T03:33:23;2.20;99.90
27226;DHT22;14732;51.074;3.788;2023-03-03T03:35:49;2.20;99.90
27226;DHT22;14732;51.074;3.788;2023-03-03T03:38:15;2.20;99.90
27226;DHT22;14732;51.074;3.788;2023-03-03T03:40:41;2.10;99.90
27226;DHT22;14732;51.074;3.788;2023-03-03T03:43:08;2.10;99.90
27226;DHT22;14732;51.074;3.788;2023-03-03T03:45:33;2.10;99.90
27226;DHT22;14732;51.074;3.788;2023-03-03T03:47:59;2.10;99.90
27226;DHT22;14732;51.074;3.788;2023-03-03T03:50:25;2.10;99.90
27226;DHT22;14732;51.074;3.788;2023-03-03T03:52:51;2.20;99.90
27226;DHT22;14732;51.074;3.788;2023-03-03T03:55:17;2.20;99.90
27226;DHT22;14732;51.074;3.788;2023-03-03T03:57:43;2.20;99.90
27226;DHT22;14732;51.074;3.788;2023-03-03T04:00:10;2.20;99.90
27226;DHT22;14732;51.074;3.788;2023-03-03T04:02:36;2.20;99.90
27226;DHT22;14732;51.074;3.788;2023-03-03T04:05:02;2.20;99.90
27226;DHT22;14732;51.074;3.788;2023-03-03T04:07:28;2.30;99.90
27226;DHT22;14732;51.074;3.788;2023-03-03T04:09:54;2.30;99.90
27226;DHT22;14732;51.074;3.788;2023-03-03T04:12:19;2.30;99.90
27226;DHT22;14732;51.074;3.788;2023-03-03T04:14:45;2.30;99.90
27226;DHT22;14732;51.074;3.788;2023-03-03T04:17:18;2.30;99.90
27226;DHT22;14732;51.074;3.788;2023-03-03T04:19:44;2.30;99.90
27226;DHT22;14732;51.074;3.788;2023-03-03T04:22:11;2.40;99.90
27226;DHT22;14732;51.074;3.788;2023-03-03T04:24:38;2.40;99.90
27226;DHT22;14732;51.074;3.788;2023-03-03T04:27:04;2.30;99.90
27226;DHT22;14732;51.074;3.788;2023-03-03T04:29:30;2.30;99.90
27226;DHT22;14732;51.074;3.788;2023-03-03T04:31:55;2.20;99.90
27226;DHT22;14732;51.074;3.788;2023-03-03T04:34:21;2.20;99.90
27226;DHT22;14732;51.074;3.788;2023-03-03T04:36:47;2.20;99.90
27226;DHT22;14732;51.074;3.788;2023-03-03T04:39:13;2.20;99.90
27226;DHT22;14732;51.074;3.788;2023-03-03T04:41:38;2.10;99.90
27226;DHT22;14732;51.074;3.788;2023-03-03T04:44:04;2.10;99.90
27226;DHT22;14732;51.074;3.788;2023-03-03T04:46:30;2.10;99.90
27226;DHT22;14732;51.074;3.788;2023-03-03T04:48:55;2.10;99.90
27226;DHT22;14732;51.074;3.788;2023-03-03T04:51:21;2.30;99.90
27226;DHT22;14732;51.074;3.788;2023-03-03T04:53:47;2.30;99.90
27226;DHT22;14732;51.074;3.788;2023-03-03T04:56:13;2.30;99.90
27226;DHT22;14732;51.074;3.788;2023-03-03T04:58:39;2.20;99.90
27226;DHT22;14732;51.074;3.788;2023-03-03T05:01:05;2.30;99.90
27226;DHT22;14732;51.074;3.788;2023-03-03T05:03:30;2.30;99.90
27226;DHT22;14732;51.074;3.788;2023-03-03T05:05:56;2.30;99.90
27226;DHT22;14732;51.074;3.788;2023-03-03T05:08:22;2.30;99.90
27226;DHT22;14732;51.074;3.788;2023-03-03T05:10:52;2.20;99.90
27226;DHT22;14732;51.074;3.788;2023-03-03T05:13:18;2.30;99.90
27226;DHT22;14732;51.074;3.788;2023-03-03T05:15:49;2.10;99.90
27226;DHT22;14732;51.074;3.788;2023-03-03T05:18:15;2.10;99.90
27226;DHT22;14732;51.074;3.788;2023-03-03T05:20:41;2.20;99.90
27226;DHT22;14732;51.074;3.788;2023-03-03T05:23:07;2.20;99.90
27226;DHT22;14732;51.074;3.788;2023-03-03T05:25:32;2.20;99.90
27226;DHT22;14732;51.074;3.788;2023-03-03T05:27:58;2.20;99.90
27226;DHT22;14732;51.074;3.788;2023-03-03T05:30:24;2.10;99.90
27226;DHT22;14732;51.074;3.788;2023-03-03T05:32:49;2.10;99.90
27226;DHT22;14732;51.074;3.788;2023-03-03T05:35:15;2.10;99.90
27226;DHT22;14732;51.074;3.788;2023-03-03T05:37:41;2.00;99.90
27226;DHT22;14732;51.074;3.788;2023-03-03T05:40:12;2.00;99.90
27226;DHT22;14732;51.074;3.788;2023-03-03T05:42:38;2.00;99.90
27226;DHT22;14732;51.074;3.788;2023-03-03T05:45:04;2.00;99.90
27226;DHT22;14732;51.074;3.788;2023-03-03T05:47:30;2.10;99.90
27226;DHT22;14732;51.074;3.788;2023-03-03T05:49:56;2.20;99.90
27226;DHT22;14732;51.074;3.788;2023-03-03T05:52:22;2.20;99.90
27226;DHT22;14732;51.074;3.788;2023-03-03T05:54:49;2.10;99.90
27226;DHT22;14732;51.074;3.788;2023-03-03T05:57:14;2.20;99.90
27226;DHT22;14732;51.074;3.788;2023-03-03T05:59:40;2.20;99.90
27226;DHT22;14732;51.074;3.788;2023-03-03T06:02:06;2.20;99.90
27226;DHT22;14732;51.074;3.788;2023-03-03T06:04:32;2.20;99.90
27226;DHT22;14732;51.074;3.788;2023-03-03T06:06:58;2.30;99.90
27226;DHT22;14732;51.074;3.788;2023-03-03T06:09:24;2.10;99.90
27226;DHT22;14732;51.074;3.788;2023-03-03T06:11:51;2.10;99.90
27226;DHT22;14732;51.074;3.788;2023-03-03T06:14:18;2.10;99.90
27226;DHT22;14732;51.074;3.788;2023-03-03T06:16:48;2.10;99.90
27226;DHT22;14732;51.074;3.788;2023-03-03T06:19:14;2.20;99.90
27226;DHT22;14732;51.074;3.788;2023-03-03T06:21:40;2.10;99.90
27226;DHT22;14732;51.074;3.788;2023-03-03T06:24:06;2.00;99.90
27226;DHT22;14732;51.074;3.788;2023-03-03T06:26:32;2.00;99.90
27226;DHT22;14732;51.074;3.788;2023-03-03T06:28:58;2.00;99.90
27226;DHT22;14732;51.074;3.788;2023-03-03T06:31:24;2.10;99.90
27226;DHT22;14732;51.074;3.788;2023-03-03T06:33:50;2.00;99.90
27226;DHT22;14732;51.074;3.788;2023-03-03T06:36:16;1.80;99.90
27226;DHT22;14732;51.074;3.788;2023-03-03T06:38:42;1.60;99.90
27226;DHT22;14732;51.074;3.788;2023-03-03T06:41:08;1.70;99.90
27226;DHT22;14732;51.074;3.788;2023-03-03T06:43:35;1.70;99.90
27226;DHT22;14732;51.074;3.788;2023-03-03T06:46:02;1.90;99.90
27226;DHT22;14732;51.074;3.788;2023-03-03T06:48:29;1.90;99.90
27226;DHT22;14732;51.074;3.788;2023-03-03T06:50:56;2.00;99.90
27226;DHT22;14732;51.074;3.788;2023-03-03T06:53:21;2.00;99.90
27226;DHT22;14732;51.074;3.788;2023-03-03T06:55:47;2.10;99.90
27226;DHT22;14732;51.074;3.788;2023-03-03T06:58:18;2.20;99.90
27226;DHT22;14732;51.074;3.788;2023-03-03T07:00:56;2.30;99.90
27226;DHT22;14732;51.074;3.788;2023-03-03T07:03:27;2.30;99.90
27226;DHT22;14732;51.074;3.788;2023-03-03T07:05:57;2.40;99.90
27226;DHT22;14732;51.074;3.788;2023-03-03T07:08:24;2.20;99.90
27226;DHT22;14732;51.074;3.788;2023-03-03T07:10:51;2.30;99.90
27226;DHT22;14732;51.074;3.788;2023-03-03T07:13:20;2.30;99.90
27226;DHT22;14732;51.074;3.788;2023-03-03T07:15:51;2.30;99.90
27226;DHT22;14732;51.074;3.788;2023-03-03T07:18:22;2.40;99.90
27226;DHT22;14732;51.074;3.788;2023-03-03T07:20:49;2.30;99.90
27226;DHT22;14732;51.074;3.788;2023-03-03T07:25:46;2.40;99.90
27226;DHT22;14732;51.074;3.788;2023-03-03T07:28:27;2.30;99.90
27226;DHT22;14732;51.074;3.788;2023-03-03T07:30:55;2.30;99.90
27226;DHT22;14732;51.074;3.788;2023-03-03T07:33:27;2.30;99.90
27226;DHT22;14732;51.074;3.788;2023-03-03T07:35:55;2.50;99.90
27226;DHT22;14732;51.074;3.788;2023-03-03T07:38:37;2.50;99.90
27226;DHT22;14732;51.074;3.788;2023-03-03T07:41:16;2.50;99.90
27226;DHT22;14732;51.074;3.788;2023-03-03T07:43:53;2.60;99.90
27226;DHT22;14732;51.074;3.788;2023-03-03T07:46:39;2.40;99.90
27226;DHT22;14732;51.074;3.788;2023-03-03T07:49:35;2.40;99.90
27226;DHT22;14732;51.074;3.788;2023-03-03T07:52:01;2.20;99.90
27226;DHT22;14732;51.074;3.788;2023-03-03T07:54:44;2.10;99.90
27226;DHT22;14732;51.074;3.788;2023-03-03T07:57:14;2.10;99.90
27226;DHT22;14732;51.074;3.788;2023-03-03T08:02:47;2.20;99.90
27226;DHT22;14732;51.074;3.788;2023-03-03T08:07:49;2.30;99.90
27226;DHT22;14732;51.074;3.788;2023-03-03T08:10:53;2.40;99.90
27226;DHT22;14732;51.074;3.788;2023-03-03T08:13:28;2.50;99.90
27226;DHT22;14732;51.074;3.788;2023-03-03T08:18:41;2.70;99.90
27226;DHT22;14732;51.074;3.788;2023-03-03T08:21:21;2.80;99.90
27226;DHT22;14732;51.074;3.788;2023-03-03T08:23:47;2.80;99.90
27226;DHT22;14732;51.074;3.788;2023-03-03T08:26:19;2.60;99.90
27226;DHT22;14732;51.074;3.788;2023-03-03T08:28:45;2.70;99.90
27226;DHT22;14732;51.074;3.788;2023-03-03T08:31:11;2.60;99.90
27226;DHT22;14732;51.074;3.788;2023-03-03T08:33:38;2.60;99.90
27226;DHT22;14732;51.074;3.788;2023-03-03T08:36:05;2.60;99.90
27226;DHT22;14732;51.074;3.788;2023-03-03T08:38:31;2.60;99.90
27226;DHT22;14732;51.074;3.788;2023-03-03T08:40:57;2.70;99.90
27226;DHT22;14732;51.074;3.788;2023-03-03T08:43:22;2.80;99.90
27226;DHT22;14732;51.074;3.788;2023-03-03T08:45:51;3.00;99.90
27226;DHT22;14732;51.074;3.788;2023-03-03T08:48:17;3.10;99.90
27226;DHT22;14732;51.074;3.788;2023-03-03T08:50:44;3.30;99.90
27226;DHT22;14732;51.074;3.788;2023-03-03T08:53:11;3.40;99.90
27226;DHT22;14732;51.074;3.788;2023-03-03T08:55:38;3.60;99.90
27226;DHT22;14732;51.074;3.788;2023-03-03T08:58:04;3.60;99.90
27226;DHT22;14732;51.074;3.788;2023-03-03T09:00:29;3.70;99.90
27226;DHT22;14732;51.074;3.788;2023-03-03T09:02:55;3.60;99.90
27226;DHT22;14732;51.074;3.788;2023-03-03T09:05:22;3.60;99.90
27226;DHT22;14732;51.074;3.788;2023-03-03T09:07:49;3.60;99.90
27226;DHT22;14732;51.074;3.788;2023-03-03T09:10:18;3.70;99.90
27226;DHT22;14732;51.074;3.788;2023-03-03T09:12:46;3.80;99.90
27226;DHT22;14732;51.074;3.788;2023-03-03T09:17:43;3.90;99.90
27226;DHT22;14732;51.074;3.788;2023-03-03T09:20:40;4.10;99.90
27226;DHT22;14732;51.074;3.788;2023-03-03T09:23:32;4.10;99.90
27226;DHT22;14732;51.074;3.788;2023-03-03T09:26:30;3.90;99.90
27226;DHT22;14732;51.074;3.788;2023-03-03T09:31:56;3.60;99.90
27226;DHT22;14732;51.074;3.788;2023-03-03T09:37:13;3.90;99.90
27226;DHT22;14732;51.074;3.788;2023-03-03T09:39:39;3.90;99.90
27226;DHT22;14732;51.074;3.788;2023-03-03T09:45:08;3.90;99.90
27226;DHT22;14732;51.074;3.788;2023-03-03T09:56:24;4.10;99.90
27226;DHT22;14732;51.074;3.788;2023-03-03T10:04:43;4.20;99.90
27226;DHT22;14732;51.074;3.788;2023-03-03T10:07:52;4.00;99.90
27226;DHT22;14732;51.074;3.788;2023-03-03T10:21:09;4.40;99.90
27226;DHT22;14732;51.074;3.788;2023-03-03T10:50:23;5.10;99.90
27226;DHT22;14732;51.074;3.788;2023-03-03T10:53:02;5.20;99.90
27226;DHT22;14732;51.074;3.788;2023-03-03T11:12:11;5.00;99.90
27226;DHT22;14732;51.074;3.788;2023-03-03T11:14:49;5.00;99.90
27226;DHT22;14732;51.074;3.788;2023-03-03T11:25:49;5.80;99.90
27226;DHT22;14732;51.074;3.788;2023-03-03T11:31:47;6.10;99.90
27226;DHT22;14732;51.074;3.788;2023-03-03T11:39:39;5.80;99.90
27226;DHT22;14732;51.074;3.788;2023-03-03T11:44:44;6.40;99.90
27226;DHT22;14732;51.074;3.788;2023-03-03T11:50:02;6.90;99.90
27226;DHT22;14732;51.074;3.788;2023-03-03T12:00:34;6.80;99.90
27226;DHT22;14732;51.074;3.788;2023-03-03T12:10:35;6.20;99.90
27226;DHT22;14732;51.074;3.788;2023-03-03T12:13:05;6.40;99.90
27226;DHT22;14732;51.074;3.788;2023-03-03T12:26:16;6.80;99.90
27226;DHT22;14732;51.074;3.788;2023-03-03T12:34:26;6.50;99.90
27226;DHT22;14732;51.074;3.788;2023-03-03T12:39:34;6.70;99.90
27226;DHT22;14732;51.074;3.788;2023-03-03T12:55:55;7.70;99.90
27226;DHT22;14732;51.074;3.788;2023-03-03T13:04:07;8.20;99.90
27226;DHT22;14732;51.074;3.788;2023-03-03T13:12:05;8.20;99.90
27226;DHT22;14732;51.074;3.788;2023-03-03T13:17:30;7.40;99.90
27226;DHT22;14732;51.074;3.788;2023-03-03T13:19:59;7.20;99.90
27226;DHT22;14732;51.074;3.788;2023-03-03T13:22:49;7.30;99.90
27226;DHT22;14732;51.074;3.788;2023-03-03T13:28:37;7.80;99.90
27226;DHT22;14732;51.074;3.788;2023-03-03T13:31:16;8.20;99.90
27226;DHT22;14732;51.074;3.788;2023-03-03T13:33:56;7.90;99.90
27226;DHT22;14732;51.074;3.788;2023-03-03T13:39:19;7.90;99.90
27226;DHT22;14732;51.074;3.788;2023-03-03T13:42:02;7.80;99.90
27226;DHT22;14732;51.074;3.788;2023-03-03T13:44:33;7.80;99.90
27226;DHT22;14732;51.074;3.788;2023-03-03T13:47:15;7.70;99.90
27226;DHT22;14732;51.074;3.788;2023-03-03T13:52:37;8.00;99.90
27226;DHT22;14732;51.074;3.788;2023-03-03T13:55:17;8.00;99.90
27226;DHT22;14732;51.074;3.788;2023-03-03T13:57:58;8.20;99.90
27226;DHT22;14732;51.074;3.788;2023-03-03T14:01:11;8.20;99.90
27226;DHT22;14732;51.074;3.788;2023-03-03T14:06:34;8.10;99.90
27226;DHT22;14732;51.074;3.788;2023-03-03T14:09:21;8.40;99.90
27226;DHT22;14732;51.074;3.788;2023-03-03T14:17:31;8.20;99.90
27226;DHT22;14732;51.074;3.788;2023-03-03T14:20:18;8.00;99.90
27226;DHT22;14732;51.074;3.788;2023-03-03T14:23:02;8.10;99.90
27226;DHT22;14732;51.074;3.788;2023-03-03T14:25:57;8.30;99.90
27226;DHT22;14732;51.074;3.788;2023-03-03T14:28:26;8.50;99.90
27226;DHT22;14732;51.074;3.788;2023-03-03T14:30:56;8.20;99.90
27226;DHT22;14732;51.074;3.788;2023-03-03T14:33:29;8.10;99.90
27226;DHT22;14732;51.074;3.788;2023-03-03T14:41:38;8.40;99.90
27226;DHT22;14732;51.074;3.788;2023-03-03T14:44:23;8.40;99.90
27226;DHT22;14732;51.074;3.788;2023-03-03T14:47:12;8.40;99.90
27226;DHT22;14732;51.074;3.788;2023-03-03T14:49:41;8.30;99.90
27226;DHT22;14732;51.074;3.788;2023-03-03T14:52:17;8.40;99.90
27226;DHT22;14732;51.074;3.788;2023-03-03T14:54:45;8.50;99.90
27226;DHT22;14732;51.074;3.788;2023-03-03T14:59:37;8.40;99.90
27226;DHT22;14732;51.074;3.788;2023-03-03T15:04:44;8.40;99.90
27226;DHT22;14732;51.074;3.788;2023-03-03T15:07:28;8.40;99.90
27226;DHT22;14732;51.074;3.788;2023-03-03T15:09:56;8.50;99.90
27226;DHT22;14732;51.074;3.788;2023-03-03T15:12:24;8.60;99.90
27226;DHT22;14732;51.074;3.788;2023-03-03T15:17:34;8.40;99.90
27226;DHT22;14732;51.074;3.788;2023-03-03T15:22:48;8.40;99.90
27226;DHT22;14732;51.074;3.788;2023-03-03T15:29:15;8.30;99.90
27226;DHT22;14732;51.074;3.788;2023-03-03T15:37:14;8.20;99.90
27226;DHT22;14732;51.074;3.788;2023-03-03T15:50:51;7.90;99.90
27226;DHT22;14732;51.074;3.788;2023-03-03T15:53:42;7.80;99.90
27226;DHT22;14732;51.074;3.788;2023-03-03T15:56:52;7.90;99.90
27226;DHT22;14732;51.074;3.788;2023-03-03T16:02:21;8.10;99.90
27226;DHT22;14732;51.074;3.788;2023-03-03T16:04:52;8.40;99.90
27226;DHT22;14732;51.074;3.788;2023-03-03T16:10:45;8.10;99.90
27226;DHT22;14732;51.074;3.788;2023-03-03T16:22:14;7.90;99.90
27226;DHT22;14732;51.074;3.788;2023-03-03T16:25:04;7.90;99.90
27226;DHT22;14732;51.074;3.788;2023-03-03T16:27:42;8.00;99.90
27226;DHT22;14732;51.074;3.788;2023-03-03T16:33:17;8.40;99.90
27226;DHT22;14732;51.074;3.788;2023-03-03T16:38:39;8.30;99.90
27226;DHT22;14732;51.074;3.788;2023-03-03T16:41:08;8.40;99.90
27226;DHT22;14732;51.074;3.788;2023-03-03T16:46:45;8.20;99.90
27226;DHT22;14732;51.074;3.788;2023-03-03T16:52:02;8.30;99.90
27226;DHT22;14732;51.074;3.788;2023-03-03T16:54:43;8.30;99.90
27226;DHT22;14732;51.074;3.788;2023-03-03T16:57:30;8.30;99.90
27226;DHT22;14732;51.074;3.788;2023-03-03T17:00:08;8.40;99.90
27226;DHT22;14732;51.074;3.788;2023-03-03T17:05:52;8.20;99.90
27226;DHT22;14732;51.074;3.788;2023-03-03T17:11:21;8.20;99.90
27226;DHT22;14732;51.074;3.788;2023-03-03T17:17:11;8.00;99.90
27226;DHT22;14732;51.074;3.788;2023-03-03T17:22:20;7.90;99.90
27226;DHT22;14732;51.074;3.788;2023-03-03T17:24:54;7.90;99.90
27226;DHT22;14732;51.074;3.788;2023-03-03T17:30:10;8.00;99.90
27226;DHT22;14732;51.074;3.788;2023-03-03T17:37:52;7.80;99.90
27226;DHT22;14732;51.074;3.788;2023-03-03T17:43:13;7.80;99.90
27226;DHT22;14732;51.074;3.788;2023-03-03T17:45:43;7.80;99.90
27226;DHT22;14732;51.074;3.788;2023-03-03T17:48:37;7.90;99.90
27226;DHT22;14732;51.074;3.788;2023-03-03T18:16:04;7.50;99.90
27226;DHT22;14732;51.074;3.788;2023-03-03T18:21:21;7.30;99.90
27226;DHT22;14732;51.074;3.788;2023-03-03T18:23:48;7.50;99.90
27226;DHT22;14732;51.074;3.788;2023-03-03T18:26:36;7.60;99.90
27226;DHT22;14732;51.074;3.788;2023-03-03T18:37:00;7.70;99.90
27226;DHT22;14732;51.074;3.788;2023-03-03T18:39:49;7.80;99.90
27226;DHT22;14732;51.074;3.788;2023-03-03T18:42:39;7.80;99.90
27226;DHT22;14732;51.074;3.788;2023-03-03T18:48:02;7.80;99.90
27226;DHT22;14732;51.074;3.788;2023-03-03T18:50:32;7.80;99.90
27226;DHT22;14732;51.074;3.788;2023-03-03T18:53:33;7.70;99.90
27226;DHT22;14732;51.074;3.788;2023-03-03T18:56:00;7.70;99.90
27226;DHT22;14732;51.074;3.788;2023-03-03T18:58:48;7.70;99.90
27226;DHT22;14732;51.074;3.788;2023-03-03T19:04:08;7.60;99.90
27226;DHT22;14732;51.074;3.788;2023-03-03T19:09:11;7.80;99.90
27226;DHT22;14732;51.074;3.788;2023-03-03T19:11:48;7.70;99.90
27226;DHT22;14732;51.074;3.788;2023-03-03T19:16:44;7.60;99.90
27226;DHT22;14732;51.074;3.788;2023-03-03T19:19:12;7.60;99.90
27226;DHT22;14732;51.074;3.788;2023-03-03T19:21:39;7.50;99.90
27226;DHT22;14732;51.074;3.788;2023-03-03T19:40:20;7.50;99.90
27226;DHT22;14732;51.074;3.788;2023-03-03T19:48:39;7.30;99.90
27226;DHT22;14732;51.074;3.788;2023-03-03T19:54:16;7.10;99.90
27226;DHT22;14732;51.074;3.788;2023-03-03T19:57:03;7.10;99.90
27226;DHT22;14732;51.074;3.788;2023-03-03T19:59:35;7.00;99.90
27226;DHT22;14732;51.074;3.788;2023-03-03T20:08:10;7.10;99.90
27226;DHT22;14732;51.074;3.788;2023-03-03T20:16:25;6.80;99.90
27226;DHT22;14732;51.074;3.788;2023-03-03T20:36:59;6.90;99.90
27226;DHT22;14732;51.074;3.788;2023-03-03T20:39:42;6.70;99.90
27226;DHT22;14732;51.074;3.788;2023-03-03T20:42:51;6.60;99.90
27226;DHT22;14732;51.074;3.788;2023-03-03T20:45:36;6.70;99.90
27226;DHT22;14732;51.074;3.788;2023-03-03T20:51:14;6.90;99.90
27226;DHT22;14732;51.074;3.788;2023-03-03T20:54:55;6.70;99.90
27226;DHT22;14732;51.074;3.788;2023-03-03T21:02:36;7.10;99.90
27226;DHT22;14732;51.074;3.788;2023-03-03T21:05:16;7.00;99.90
27226;DHT22;14732;51.074;3.788;2023-03-03T21:08:02;7.00;99.90
27226;DHT22;14732;51.074;3.788;2023-03-03T21:10:36;7.00;99.90
27226;DHT22;14732;51.074;3.788;2023-03-03T21:13:24;7.10;99.90
27226;DHT22;14732;51.074;3.788;2023-03-03T21:18:32;6.90;99.90
27226;DHT22;14732;51.074;3.788;2023-03-03T21:20:59;7.00;99.90
27226;DHT22;14732;51.074;3.788;2023-03-03T21:23:25;7.10;99.90
27226;DHT22;14732;51.074;3.788;2023-03-03T21:25:55;7.20;99.90
27226;DHT22;14732;51.074;3.788;2023-03-03T21:28:29;7.20;99.90
27226;DHT22;14732;51.074;3.788;2023-03-03T21:31:14;7.20;99.90
27226;DHT22;14732;51.074;3.788;2023-03-03T21:33:47;7.30;99.90
27226;DHT22;14732;51.074;3.788;2023-03-03T21:39:22;7.40;99.90
27226;DHT22;14732;51.074;3.788;2023-03-03T21:42:02;7.40;99.90
27226;DHT22;14732;51.074;3.788;2023-03-03T21:47:01;7.20;99.90
27226;DHT22;14732;51.074;3.788;2023-03-03T21:49:28;7.20;99.90
27226;DHT22;14732;51.074;3.788;2023-03-03T21:51:54;7.10;99.90
27226;DHT22;14732;51.074;3.788;2023-03-03T21:54:21;7.20;99.90
27226;DHT22;14732;51.074;3.788;2023-03-03T21:56:47;7.10;99.90
27226;DHT22;14732;51.074;3.788;2023-03-03T21:59:15;7.00;99.90
27226;DHT22;14732;51.074;3.788;2023-03-03T22:01:41;7.00;99.90
27226;DHT22;14732;51.074;3.788;2023-03-03T22:04:06;7.00;99.90
27226;DHT22;14732;51.074;3.788;2023-03-03T22:06:32;7.00;99.90
27226;DHT22;14732;51.074;3.788;2023-03-03T22:08:58;6.80;99.90
27226;DHT22;14732;51.074;3.788;2023-03-03T22:11:23;6.90;99.90
27226;DHT22;14732;51.074;3.788;2023-03-03T22:13:49;6.90;99.90
27226;DHT22;14732;51.074;3.788;2023-03-03T22:16:15;7.00;99.90
27226;DHT22;14732;51.074;3.788;2023-03-03T22:18:40;6.90;99.90
27226;DHT22;14732;51.074;3.788;2023-03-03T22:21:06;6.80;99.90
27226;DHT22;14732;51.074;3.788;2023-03-03T22:23:32;6.80;99.90
27226;DHT22;14732;51.074;3.788;2023-03-03T22:25:57;6.70;99.90
27226;DHT22;14732;51.074;3.788;2023-03-03T22:28:24;6.80;99.90
27226;DHT22;14732;51.074;3.788;2023-03-03T22:30:49;6.70;99.90
27226;DHT22;14732;51.074;3.788;2023-03-03T22:33:15;6.80;99.90
27226;DHT22;14732;51.074;3.788;2023-03-03T22:35:41;6.80;99.90
27226;DHT22;14732;51.074;3.788;2023-03-03T22:38:06;6.70;99.90
27226;DHT22;14732;51.074;3.788;2023-03-03T22:40:32;6.60;99.90
27226;DHT22;14732;51.074;3.788;2023-03-03T22:42:58;6.60;99.90
27226;DHT22;14732;51.074;3.788;2023-03-03T22:45:24;6.60;99.90
27226;DHT22;14732;51.074;3.788;2023-03-03T22:47:50;6.50;99.90
27226;DHT22;14732;51.074;3.788;2023-03-03T22:50:16;6.50;99.90
27226;DHT22;14732;51.074;3.788;2023-03-03T22:52:42;6.50;99.90
27226;DHT22;14732;51.074;3.788;2023-03-03T22:55:08;6.40;99.90
27226;DHT22;14732;51.074;3.788;2023-03-03T22:57:34;6.50;99.90
27226;DHT22;14732;51.074;3.788;2023-03-03T23:00:00;6.50;99.90
27226;DHT22;14732;51.074;3.788;2023-03-03T23:02:27;6.50;99.90
27226;DHT22;14732;51.074;3.788;2023-03-03T23:04:53;6.50;99.90
27226;DHT22;14732;51.074;3.788;2023-03-03T23:07:25;6.60;99.90
27226;DHT22;14732;51.074;3.788;2023-03-03T23:09:51;6.60;99.90
27226;DHT22;14732;51.074;3.788;2023-03-03T23:12:16;6.60;99.90
27226;DHT22;14732;51.074;3.788;2023-03-03T23:14:42;6.60;99.90